createdAt,value
2019-03-04T00:01:13.171Z,3.60
2019-03-04T00:02:21.676Z,3.80
2019-03-04T00:03:28.362Z,4.17
2019-03-04T00:04:35.792Z,4.30
2019-03-04T00:05:42.558Z,3.57
2019-03-04T00:06:49.689Z,3.97
2019-03-04T00:07:56.417Z,4.27
2019-03-04T00:09:03.621Z,4.83
2019-03-04T00:10:10.765Z,3.30
2019-03-04T00:11:17.546Z,4.43
2019-03-04T00:12:24.542Z,5.00
2019-03-04T00:13:31.610Z,4.30
2019-03-04T00:14:38.498Z,3.70
2019-03-04T00:15:45.674Z,4.13
2019-03-04T00:16:52.382Z,3.60
2019-03-04T00:17:59.390Z,4.30
2019-03-04T00:19:06.129Z,3.77
2019-03-04T00:20:12.793Z,3.40
2019-03-04T00:21:19.664Z,3.80
2019-03-04T00:22:26.483Z,4.10
2019-03-04T00:23:33.220Z,3.57
2019-03-04T00:24:39.918Z,3.57
2019-03-04T00:25:46.736Z,3.53
2019-03-04T00:26:54.177Z,4.17
2019-03-04T00:28:01.229Z,3.80
2019-03-04T00:29:07.980Z,4.00
2019-03-04T00:30:14.822Z,3.30
2019-03-04T00:31:21.872Z,3.23
2019-03-04T00:32:28.639Z,4.20
2019-03-04T00:33:35.757Z,4.20
2019-03-04T00:34:42.420Z,3.90
2019-03-04T00:35:49.468Z,3.50
2019-03-04T00:36:56.592Z,3.60
2019-03-04T00:38:03.593Z,3.60
2019-03-04T00:39:12.781Z,3.67
2019-03-04T00:40:19.950Z,2.97
2019-03-04T00:41:26.713Z,3.10
2019-03-04T00:42:33.395Z,3.73
2019-03-04T00:43:40.150Z,2.97
2019-03-04T00:44:47.128Z,3.33
2019-03-04T00:45:54.128Z,3.20
2019-03-04T00:47:01.030Z,3.07
2019-03-04T00:48:07.755Z,3.60
2019-03-04T00:49:14.422Z,3.57
2019-03-04T00:50:21.150Z,3.23
2019-03-04T00:51:28.275Z,3.30
2019-03-04T00:52:35.000Z,3.20
2019-03-04T00:53:42.694Z,3.40
2019-03-04T00:54:49.394Z,3.43
2019-03-04T00:55:56.176Z,4.07
2019-03-04T00:57:03.390Z,3.40
2019-03-04T00:58:10.105Z,3.13
2019-03-04T00:59:17.155Z,3.30
2019-03-04T01:00:25.549Z,3.37
2019-03-04T01:01:32.204Z,3.53
2019-03-04T01:02:38.927Z,3.40
2019-03-04T01:03:45.664Z,3.60
2019-03-04T01:04:52.377Z,3.50
2019-03-04T01:05:59.089Z,3.30
2019-03-04T01:07:05.743Z,3.50
2019-03-04T01:08:12.443Z,3.20
2019-03-04T01:09:19.684Z,3.03
2019-03-04T01:10:26.392Z,3.30
2019-03-04T01:11:33.124Z,2.60
2019-03-04T01:12:40.529Z,3.17
2019-03-04T01:13:47.561Z,2.80
2019-03-04T01:14:54.285Z,2.73
2019-03-04T01:16:01.505Z,2.83
2019-03-04T01:17:08.533Z,3.17
2019-03-04T01:18:15.878Z,2.90
2019-03-04T01:19:22.608Z,2.70
2019-03-04T01:20:29.292Z,4.10
2019-03-04T01:21:36.696Z,3.50
2019-03-04T01:22:43.373Z,2.90
2019-03-04T01:23:51.562Z,3.00
2019-03-04T01:24:58.881Z,2.87
2019-03-04T01:26:05.618Z,3.10
2019-03-04T01:27:12.374Z,3.00
2019-03-04T01:28:19.008Z,2.60
2019-03-04T01:29:26.385Z,2.87
2019-03-04T01:30:33.424Z,3.60
2019-03-04T01:31:40.827Z,3.50
2019-03-04T01:32:47.626Z,2.90
2019-03-04T01:33:54.680Z,3.40
2019-03-04T01:35:01.495Z,3.60
2019-03-04T01:36:08.448Z,2.60
2019-03-04T01:37:15.506Z,2.70
2019-03-04T01:38:22.173Z,3.00
2019-03-04T01:39:29.969Z,2.67
2019-03-04T01:40:37.010Z,3.10
2019-03-04T01:41:43.736Z,3.20
2019-03-04T01:42:50.530Z,2.77
2019-03-04T01:43:57.988Z,2.87
2019-03-04T01:45:05.305Z,2.70
2019-03-04T01:46:12.063Z,3.20
2019-03-04T01:47:18.771Z,2.70
2019-03-04T01:48:25.813Z,3.90
2019-03-04T01:49:32.519Z,2.73
2019-03-04T01:50:39.915Z,2.80
2019-03-04T01:51:46.909Z,2.43
2019-03-04T01:52:53.677Z,2.83
2019-03-04T01:54:00.640Z,3.63
2019-03-04T01:55:08.456Z,2.70
2019-03-04T01:56:15.132Z,2.53
2019-03-04T01:57:21.849Z,2.30
2019-03-04T01:58:28.659Z,2.40
2019-03-04T01:59:35.805Z,2.67
2019-03-04T02:00:42.529Z,2.60
2019-03-04T02:01:49.245Z,2.87
2019-03-04T02:02:55.999Z,2.53
2019-03-04T02:04:02.690Z,3.90
2019-03-04T02:05:09.956Z,2.60
2019-03-04T02:06:16.690Z,2.10
2019-03-04T02:07:24.051Z,2.33
2019-03-04T02:08:31.082Z,2.80
2019-03-04T02:09:37.794Z,3.10
2019-03-04T02:10:44.984Z,2.50
2019-03-04T02:11:51.933Z,2.23
2019-03-04T02:12:58.914Z,2.67
2019-03-04T02:14:05.809Z,2.87
2019-03-04T02:15:15.569Z,2.23
2019-03-04T02:16:22.643Z,3.03
2019-03-04T02:17:29.700Z,2.80
2019-03-04T02:18:36.412Z,2.63
2019-03-04T02:19:43.414Z,2.80
2019-03-04T02:20:50.397Z,2.50
2019-03-04T02:21:57.810Z,2.70
2019-03-04T02:23:04.498Z,2.30
2019-03-04T02:24:24.295Z,2.10
2019-03-04T02:26:25.623Z,2.20
2019-03-04T02:27:32.294Z,3.13
2019-03-04T02:28:39.373Z,2.20
2019-03-04T02:29:46.087Z,2.87
2019-03-04T02:30:52.778Z,3.17
2019-03-04T02:31:59.733Z,2.23
2019-03-04T02:33:06.586Z,2.43
2019-03-04T02:34:13.621Z,2.80
2019-03-04T02:35:20.312Z,2.80
2019-03-04T02:36:26.987Z,2.80
2019-03-04T02:37:34.316Z,2.17
2019-03-04T02:38:41.043Z,2.40
2019-03-04T02:39:47.765Z,2.30
2019-03-04T02:40:54.760Z,2.70
2019-03-04T02:42:01.905Z,2.30
2019-03-04T02:43:08.582Z,2.50
2019-03-04T02:44:15.703Z,2.27
2019-03-04T02:45:23.231Z,2.83
2019-03-04T02:46:30.273Z,3.20
2019-03-04T02:47:37.063Z,3.33
2019-03-04T02:48:43.766Z,2.50
2019-03-04T02:49:50.740Z,2.03
2019-03-04T02:50:57.434Z,2.83
2019-03-04T02:52:04.139Z,2.00
2019-03-04T02:53:11.466Z,2.77
2019-03-04T02:54:18.133Z,2.60
2019-03-04T02:55:24.822Z,2.00
2019-03-04T02:56:31.567Z,2.60
2019-03-04T02:57:38.626Z,2.27
2019-03-04T02:58:45.548Z,2.33
2019-03-04T02:59:52.644Z,1.70
2019-03-04T03:00:59.464Z,2.30
2019-03-04T03:02:07.465Z,2.23
2019-03-04T03:03:14.137Z,1.60
2019-03-04T03:04:20.887Z,2.10
2019-03-04T03:05:27.612Z,2.33
2019-03-04T03:06:34.242Z,2.10
2019-03-04T03:07:41.011Z,2.30
2019-03-04T03:08:47.698Z,2.17
2019-03-04T03:09:54.844Z,2.23
2019-03-04T03:11:01.551Z,2.60
2019-03-04T03:12:08.554Z,2.40
2019-03-04T03:13:15.615Z,2.60
2019-03-04T03:14:22.669Z,2.07
2019-03-04T03:15:29.443Z,2.37
2019-03-04T03:16:36.399Z,2.20
2019-03-04T03:17:43.123Z,2.23
2019-03-04T03:18:50.462Z,2.30
2019-03-04T03:19:57.139Z,2.20
2019-03-04T03:21:04.225Z,2.23
2019-03-04T03:22:10.897Z,1.90
2019-03-04T03:23:17.795Z,1.90
2019-03-04T03:24:25.278Z,2.70
2019-03-04T03:25:32.053Z,2.13
2019-03-04T03:26:39.126Z,1.80
2019-03-04T03:27:45.961Z,2.20
2019-03-04T03:28:52.662Z,2.13
2019-03-04T03:30:00.141Z,1.83
2019-03-04T03:31:07.567Z,1.73
2019-03-04T03:32:14.310Z,2.60
2019-03-04T03:33:21.106Z,1.57
2019-03-04T03:34:27.905Z,1.60
2019-03-04T03:35:34.623Z,2.07
2019-03-04T03:36:41.288Z,1.43
2019-03-04T03:37:48.342Z,1.50
2019-03-04T03:38:55.452Z,1.67
2019-03-04T03:40:02.494Z,1.43
2019-03-04T03:41:09.252Z,1.47
2019-03-04T03:42:18.840Z,2.70
2019-03-04T03:43:24.553Z,1.63
2019-03-04T03:44:31.963Z,1.70
2019-03-04T03:45:38.614Z,2.10
2019-03-04T03:46:45.612Z,1.83
2019-03-04T03:47:52.614Z,2.33
2019-03-04T03:48:59.316Z,1.70
2019-03-04T03:50:07.747Z,1.73
2019-03-04T03:51:14.426Z,1.50
2019-03-04T03:52:21.065Z,1.90
2019-03-04T03:53:27.798Z,1.67
2019-03-04T03:54:34.440Z,1.37
2019-03-04T03:55:41.537Z,2.00
2019-03-04T03:56:48.639Z,1.90
2019-03-04T03:57:56.013Z,1.90
2019-03-04T03:59:03.068Z,1.30
2019-03-04T04:00:16.004Z,2.33
2019-03-04T04:01:22.964Z,1.63
2019-03-04T04:02:29.628Z,1.67
2019-03-04T04:03:36.642Z,1.73
2019-03-04T04:04:43.408Z,1.70
2019-03-04T04:05:50.077Z,1.30
2019-03-04T04:06:56.844Z,1.57
2019-03-04T04:08:03.551Z,1.47
2019-03-04T04:09:10.237Z,1.43
2019-03-04T04:10:22.925Z,1.90
2019-03-04T04:11:29.629Z,1.73
2019-03-04T04:12:36.634Z,1.30
2019-03-04T04:13:43.341Z,1.40
2019-03-04T04:14:50.245Z,1.27
2019-03-04T04:15:57.164Z,1.50
2019-03-04T04:17:03.860Z,1.40
2019-03-04T04:18:10.534Z,1.60
2019-03-04T04:19:17.569Z,1.53
2019-03-04T04:20:24.600Z,1.77
2019-03-04T04:21:31.624Z,1.80
2019-03-04T04:22:38.685Z,1.70
2019-03-04T04:23:46.047Z,1.60
2019-03-04T04:24:53.322Z,1.50
2019-03-04T04:26:00.508Z,1.60
2019-03-04T04:27:07.626Z,1.30
2019-03-04T04:28:14.670Z,1.23
2019-03-04T04:29:21.335Z,1.27
2019-03-04T04:30:29.727Z,1.67
2019-03-04T04:31:36.762Z,1.50
2019-03-04T04:32:43.792Z,1.57
2019-03-04T04:33:51.047Z,2.00
2019-03-04T04:34:58.271Z,1.47
2019-03-04T04:36:04.991Z,1.40
2019-03-04T04:37:12.724Z,1.87
2019-03-04T04:38:19.388Z,1.60
2019-03-04T04:39:26.129Z,1.50
2019-03-04T04:40:33.164Z,1.70
2019-03-04T04:41:40.504Z,1.50
2019-03-04T04:42:47.195Z,1.50
2019-03-04T04:43:53.974Z,1.23
2019-03-04T04:45:01.237Z,1.50
2019-03-04T04:46:07.912Z,1.20
2019-03-04T04:47:14.983Z,1.40
2019-03-04T04:48:21.743Z,1.50
2019-03-04T04:49:36.116Z,1.57
2019-03-04T04:50:42.797Z,1.50
2019-03-04T04:51:49.706Z,1.77
2019-03-04T04:52:56.476Z,1.90
2019-03-04T04:54:03.484Z,1.70
2019-03-04T04:55:10.381Z,1.50
2019-03-04T04:56:17.024Z,1.70
2019-03-04T04:57:23.737Z,1.67
2019-03-04T04:58:30.479Z,1.53
2019-03-04T04:59:37.230Z,1.50
2019-03-04T05:00:43.921Z,2.30
2019-03-04T05:01:50.571Z,1.67
2019-03-04T05:02:57.656Z,1.50
2019-03-04T05:04:04.744Z,1.33
2019-03-04T05:05:11.840Z,1.80
2019-03-04T05:06:18.535Z,1.80
2019-03-04T05:07:25.346Z,1.80
2019-03-04T05:08:32.504Z,2.17
2019-03-04T05:09:39.835Z,1.67
2019-03-04T05:10:47.006Z,1.57
2019-03-04T05:11:54.122Z,1.50
2019-03-04T05:13:01.261Z,1.43
2019-03-04T05:14:07.920Z,1.87
2019-03-04T05:15:15.182Z,1.30
2019-03-04T05:16:21.916Z,1.27
2019-03-04T05:17:28.706Z,1.53
2019-03-04T05:18:35.329Z,1.67
2019-03-04T05:19:42.059Z,1.80
2019-03-04T05:20:48.715Z,1.60
2019-03-04T05:21:55.878Z,1.37
2019-03-04T05:23:02.598Z,1.60
2019-03-04T05:24:09.490Z,1.20
2019-03-04T05:25:16.215Z,1.60
2019-03-04T05:26:23.361Z,1.90
2019-03-04T05:27:30.045Z,1.70
2019-03-04T05:28:36.753Z,1.40
2019-03-04T05:29:43.413Z,1.10
2019-03-04T05:30:50.117Z,1.57
2019-03-04T05:31:56.969Z,1.33
2019-03-04T05:33:03.884Z,1.70
2019-03-04T05:34:10.620Z,1.17
2019-03-04T05:35:17.264Z,1.70
2019-03-04T05:36:23.972Z,1.70
2019-03-04T05:37:30.696Z,1.27
2019-03-04T05:38:37.701Z,1.50
2019-03-04T05:39:44.527Z,1.63
2019-03-04T05:40:51.202Z,1.53
2019-03-04T05:41:57.982Z,1.17
2019-03-04T05:43:04.928Z,1.37
2019-03-04T05:44:11.677Z,1.50
2019-03-04T05:45:18.706Z,1.50
2019-03-04T05:46:25.803Z,1.73
2019-03-04T05:47:33.139Z,1.60
2019-03-04T05:48:39.895Z,1.60
2019-03-04T05:49:46.563Z,1.60
2019-03-04T05:50:53.267Z,1.70
2019-03-04T05:52:00.067Z,1.83
2019-03-04T05:53:06.754Z,1.40
2019-03-04T05:54:13.791Z,1.63
2019-03-04T05:55:20.477Z,1.77
2019-03-04T05:56:27.603Z,1.70
2019-03-04T05:57:34.256Z,1.80
2019-03-04T05:58:40.910Z,1.40
2019-03-04T05:59:47.787Z,1.77
2019-03-04T06:01:31.337Z,1.70
2019-03-04T06:02:38.009Z,2.10
2019-03-04T06:03:45.216Z,1.97
2019-03-04T06:04:51.878Z,1.57
2019-03-04T06:05:58.677Z,1.57
2019-03-04T06:07:24.309Z,1.50
2019-03-04T06:08:31.341Z,1.40
2019-03-04T06:09:38.853Z,1.60
2019-03-04T06:10:46.029Z,1.50
2019-03-04T06:11:52.748Z,1.50
2019-03-04T06:12:59.783Z,1.83
2019-03-04T06:14:07.811Z,1.50
2019-03-04T06:15:17.999Z,1.43
2019-03-04T06:16:25.029Z,1.30
2019-03-04T06:17:31.731Z,1.87
2019-03-04T06:18:38.478Z,1.73
2019-03-04T06:19:45.206Z,1.30
2019-03-04T06:20:51.928Z,1.50
2019-03-04T06:21:59.189Z,1.60
2019-03-04T06:23:05.926Z,1.40
2019-03-04T06:24:12.694Z,1.40
2019-03-04T06:25:28.051Z,1.50
2019-03-04T06:26:34.741Z,1.57
2019-03-04T06:27:41.755Z,1.30
2019-03-04T06:28:48.970Z,1.40
2019-03-04T06:29:56.060Z,1.50
2019-03-04T06:31:02.719Z,1.53
2019-03-04T06:32:09.836Z,1.00
2019-03-04T06:33:16.522Z,1.13
2019-03-04T06:34:23.476Z,1.40
2019-03-04T06:35:30.511Z,1.87
2019-03-04T06:36:37.205Z,1.10
2019-03-04T06:37:44.251Z,1.30
2019-03-04T06:38:50.950Z,1.60
2019-03-04T06:39:58.062Z,1.57
2019-03-04T06:41:04.759Z,1.30
2019-03-04T06:42:11.624Z,1.50
2019-03-04T06:43:18.299Z,1.40
2019-03-04T06:44:25.089Z,1.37
2019-03-04T06:45:32.212Z,1.50
2019-03-04T06:46:39.220Z,1.23
2019-03-04T06:47:45.906Z,1.60
2019-03-04T06:48:52.615Z,1.40
2019-03-04T06:49:59.447Z,1.60
2019-03-04T06:51:09.155Z,1.40
2019-03-04T06:52:15.846Z,0.97
2019-03-04T06:53:57.350Z,1.20
2019-03-04T06:55:36.374Z,1.10
2019-03-04T06:57:01.356Z,1.20
2019-03-04T06:58:08.052Z,0.70
2019-03-04T06:59:45.203Z,1.50
2019-03-04T07:01:24.610Z,0.83
2019-03-04T07:02:32.438Z,1.40
2019-03-04T07:04:20.883Z,1.33
2019-03-04T07:05:50.877Z,1.00
2019-03-04T07:06:57.622Z,0.93
2019-03-04T07:08:04.684Z,0.83
2019-03-04T07:09:20.144Z,0.87
2019-03-04T07:10:26.892Z,0.93
2019-03-04T07:11:33.934Z,1.20
2019-03-04T07:12:40.916Z,0.97
2019-03-04T07:13:47.957Z,1.07
2019-03-04T07:14:55.463Z,1.30
2019-03-04T07:16:02.118Z,1.30
2019-03-04T07:17:09.149Z,1.00
2019-03-04T07:18:16.167Z,1.10
2019-03-04T07:19:24.752Z,1.53
2019-03-04T07:20:31.457Z,1.40
2019-03-04T07:21:39.049Z,0.70
2019-03-04T07:22:45.740Z,1.20
2019-03-04T07:23:53.015Z,1.30
2019-03-04T07:25:00.332Z,0.93
2019-03-04T07:26:07.329Z,0.83
2019-03-04T07:27:14.571Z,1.20
2019-03-04T07:28:21.270Z,0.83
2019-03-04T07:29:27.976Z,1.30
2019-03-04T07:30:34.733Z,1.40
2019-03-04T07:31:41.399Z,2.43
2019-03-04T07:32:48.487Z,1.00
2019-03-04T07:33:55.280Z,0.77
2019-03-04T07:35:02.457Z,1.03
2019-03-04T07:36:09.525Z,1.37
2019-03-04T07:37:16.374Z,0.90
2019-03-04T07:39:12.819Z,0.83
2019-03-04T07:40:19.815Z,1.17
2019-03-04T07:41:28.679Z,0.63
2019-03-04T07:42:35.787Z,1.07
2019-03-04T07:43:42.817Z,0.70
2019-03-04T07:44:49.644Z,0.97
2019-03-04T07:45:56.294Z,1.10
2019-03-04T07:47:02.982Z,0.77
2019-03-04T07:48:10.166Z,1.17
2019-03-04T07:49:16.891Z,1.17
2019-03-04T07:50:23.642Z,2.83
2019-03-04T07:51:30.962Z,1.03
2019-03-04T07:52:37.645Z,0.70
2019-03-04T07:53:46.618Z,1.00
2019-03-04T07:54:53.152Z,1.10
2019-03-04T07:55:59.975Z,1.10
2019-03-04T07:57:06.892Z,0.93
2019-03-04T07:58:14.310Z,0.97
2019-03-04T07:59:21.537Z,0.90
2019-03-04T08:00:28.213Z,1.33
2019-03-04T08:01:35.171Z,1.10
2019-03-04T08:02:41.830Z,1.00
2019-03-04T08:03:49.252Z,0.70
2019-03-04T08:04:56.210Z,1.00
2019-03-04T08:06:03.005Z,0.63
2019-03-04T08:07:48.847Z,1.00
2019-03-04T08:10:17.088Z,0.80
2019-03-04T08:12:30.159Z,0.70
2019-03-04T08:13:48.463Z,1.40
2019-03-04T08:14:55.537Z,1.10
2019-03-04T08:16:02.628Z,1.00
2019-03-04T08:17:09.705Z,0.87
2019-03-04T08:18:16.509Z,0.97
2019-03-04T08:19:23.163Z,0.67
2019-03-04T08:20:29.909Z,0.90
2019-03-04T08:21:36.872Z,0.73
2019-03-04T08:22:43.712Z,1.40
2019-03-04T08:23:51.002Z,0.97
2019-03-04T08:24:57.886Z,0.90
2019-03-04T08:26:05.799Z,0.70
2019-03-04T08:27:12.599Z,1.07
2019-03-04T08:28:19.997Z,0.90
2019-03-04T08:29:27.176Z,0.90
2019-03-04T08:30:33.859Z,0.73
2019-03-04T08:31:40.992Z,0.87
2019-03-04T08:32:47.995Z,0.90
2019-03-04T08:33:55.208Z,1.03
2019-03-04T08:35:01.884Z,1.50
2019-03-04T08:36:09.005Z,1.00
2019-03-04T08:37:16.382Z,1.23
2019-03-04T08:38:23.487Z,0.83
2019-03-04T08:39:30.956Z,0.97
2019-03-04T08:40:38.171Z,1.13
2019-03-04T08:41:44.955Z,1.23
2019-03-04T08:42:51.826Z,1.27
2019-03-04T08:44:00.410Z,1.00
2019-03-04T08:45:08.234Z,1.57
2019-03-04T08:46:14.942Z,1.27
2019-03-04T08:47:21.716Z,1.10
2019-03-04T08:48:28.581Z,1.30
2019-03-04T08:49:35.284Z,1.27
2019-03-04T08:50:42.303Z,0.90
2019-03-04T08:51:48.995Z,1.40
2019-03-04T08:52:55.714Z,1.13
2019-03-04T08:54:02.476Z,1.97
2019-03-04T08:55:11.164Z,1.50
2019-03-04T08:56:18.224Z,0.87
2019-03-04T08:57:24.933Z,1.00
2019-03-04T08:58:31.638Z,1.70
2019-03-04T08:59:38.370Z,1.07
2019-03-04T09:00:45.101Z,1.50
2019-03-04T09:01:51.821Z,1.20
2019-03-04T09:02:59.270Z,1.30
2019-03-04T09:04:06.766Z,1.47
2019-03-04T09:05:13.729Z,1.33
2019-03-04T09:06:20.462Z,1.13
2019-03-04T09:07:27.518Z,1.30
2019-03-04T09:08:35.890Z,1.50
2019-03-04T09:09:42.791Z,1.17
2019-03-04T09:10:49.602Z,1.13
2019-03-04T09:11:56.485Z,1.40
2019-03-04T09:13:03.458Z,1.50
2019-03-04T09:14:10.155Z,1.47
2019-03-04T09:15:17.793Z,1.40
2019-03-04T09:16:26.701Z,1.00
2019-03-04T09:17:33.333Z,1.03
2019-03-04T09:18:40.440Z,1.10
2019-03-04T09:19:47.566Z,1.80
2019-03-04T09:20:54.694Z,1.20
2019-03-04T09:22:02.699Z,1.30
2019-03-04T09:23:09.781Z,1.50
2019-03-04T09:24:16.546Z,1.83
2019-03-04T09:25:33.414Z,1.93
2019-03-04T09:26:40.403Z,1.63
2019-03-04T09:27:47.663Z,1.90
2019-03-04T09:28:55.003Z,1.87
2019-03-04T09:30:01.703Z,2.27
2019-03-04T09:31:08.736Z,2.27
2019-03-04T09:32:15.429Z,1.80
2019-03-04T09:33:22.128Z,1.97
2019-03-04T09:34:29.354Z,1.93
2019-03-04T09:35:36.061Z,1.83
2019-03-04T09:36:43.147Z,2.40
2019-03-04T09:37:50.074Z,1.70
2019-03-04T09:38:56.797Z,1.80
2019-03-04T09:40:03.478Z,2.30
2019-03-04T09:41:10.500Z,2.23
2019-03-04T09:42:20.933Z,1.50
2019-03-04T09:43:27.719Z,2.00
2019-03-04T09:44:34.429Z,1.87
2019-03-04T09:45:41.163Z,1.77
2019-03-04T09:46:47.881Z,1.90
2019-03-04T09:47:55.011Z,2.00
2019-03-04T09:49:01.726Z,2.10
2019-03-04T09:50:12.547Z,1.60
2019-03-04T09:51:24.475Z,1.80
2019-03-04T09:52:29.226Z,2.77
2019-03-04T09:53:39.474Z,2.00
2019-03-04T09:54:44.914Z,2.60
2019-03-04T09:55:51.618Z,2.00
2019-03-04T09:56:58.348Z,2.00
2019-03-04T09:58:06.731Z,1.97
2019-03-04T09:59:13.394Z,2.47
2019-03-04T10:01:02.153Z,2.07
2019-03-04T10:02:16.749Z,1.30
2019-03-04T10:04:23.981Z,1.17
2019-03-04T10:06:07.896Z,1.60
2019-03-04T10:07:57.496Z,0.97
2019-03-04T10:09:56.114Z,1.23
2019-03-04T10:11:49.189Z,0.90
2019-03-04T10:13:54.801Z,1.23
2019-03-04T10:15:47.047Z,0.90
2019-03-04T10:17:34.346Z,0.67
2019-03-04T10:20:03.983Z,0.60
2019-03-04T10:21:51.010Z,0.53
2019-03-04T10:23:56.401Z,0.60
2019-03-04T10:25:34.718Z,0.70
2019-03-04T10:27:42.167Z,0.40
2019-03-04T10:29:28.066Z,0.30
2019-03-04T10:31:28.181Z,0.40
2019-03-04T10:33:48.681Z,0.40
2019-03-04T10:35:30.575Z,0.40
2019-03-04T10:37:47.816Z,0.50
2019-03-04T10:39:50.962Z,0.40
2019-03-04T10:41:51.111Z,0.30
2019-03-04T10:44:19.556Z,0.50
2019-03-04T10:46:11.791Z,0.40
2019-03-04T10:47:18.861Z,0.60
2019-03-04T10:48:25.581Z,0.40
2019-03-04T10:49:36.197Z,0.43
2019-03-04T10:50:42.856Z,0.40
2019-03-04T10:51:49.889Z,0.40
2019-03-04T10:52:56.916Z,0.40
2019-03-04T10:54:03.988Z,0.40
2019-03-04T10:55:12.351Z,0.40
2019-03-04T10:56:19.377Z,0.50
2019-03-04T10:57:26.366Z,0.40
2019-03-04T10:58:33.092Z,0.40
2019-03-04T10:59:39.785Z,1.00
2019-03-04T11:00:47.232Z,0.57
2019-03-04T11:01:54.712Z,0.50
2019-03-04T11:03:01.764Z,0.47
2019-03-04T11:04:08.610Z,0.70
2019-03-04T11:05:15.994Z,0.70
2019-03-04T11:06:23.088Z,0.60
2019-03-04T11:07:29.746Z,0.80
2019-03-04T11:08:36.530Z,0.70
2019-03-04T11:09:43.274Z,0.90
2019-03-04T11:10:49.979Z,0.80
2019-03-04T11:11:56.683Z,0.70
2019-03-04T11:13:03.815Z,0.70
2019-03-04T11:14:11.064Z,0.70
2019-03-04T11:15:21.776Z,1.30
2019-03-04T11:16:28.793Z,0.67
2019-03-04T11:17:36.178Z,0.90
2019-03-04T11:18:42.885Z,0.63
2019-03-04T11:19:49.602Z,1.10
2019-03-04T11:20:56.546Z,1.20
2019-03-04T11:22:03.317Z,0.90
2019-03-04T11:23:10.416Z,0.90
2019-03-04T11:24:17.701Z,1.23
2019-03-04T11:25:24.589Z,0.80
2019-03-04T11:26:31.296Z,0.90
2019-03-04T11:27:37.990Z,1.33
2019-03-04T11:28:44.763Z,0.80
2019-03-04T11:29:51.706Z,1.77
2019-03-04T11:30:58.925Z,0.93
2019-03-04T11:32:06.291Z,1.10
2019-03-04T11:33:12.931Z,1.10
2019-03-04T11:34:19.944Z,1.20
2019-03-04T11:35:26.644Z,1.13
2019-03-04T11:36:33.844Z,1.03
2019-03-04T11:37:40.605Z,1.00
2019-03-04T11:38:58.762Z,0.83
2019-03-04T11:40:11.550Z,1.03
2019-03-04T11:41:21.871Z,0.97
2019-03-04T11:42:28.614Z,1.67
2019-03-04T11:43:35.302Z,1.17
2019-03-04T11:44:42.294Z,0.90
2019-03-04T11:45:49.005Z,1.07
2019-03-04T11:46:55.829Z,1.17
2019-03-04T11:48:02.469Z,1.00
2019-03-04T11:49:09.517Z,0.97
2019-03-04T11:50:16.801Z,0.93
2019-03-04T11:51:23.675Z,0.97
2019-03-04T11:52:30.398Z,1.30
2019-03-04T11:53:37.198Z,1.10
2019-03-04T11:54:43.998Z,1.47
2019-03-04T11:55:50.812Z,1.93
2019-03-04T11:56:57.574Z,1.77
2019-03-04T11:58:04.253Z,1.00
2019-03-04T11:59:10.953Z,1.17
2019-03-04T12:00:26.032Z,1.10
2019-03-04T12:01:40.638Z,1.67
2019-03-04T12:02:47.483Z,2.37
2019-03-04T12:03:54.306Z,1.67
2019-03-04T12:05:01.356Z,1.27
2019-03-04T12:06:09.443Z,1.23
2019-03-04T12:07:16.616Z,1.37
2019-03-04T12:08:23.359Z,1.63
2019-03-04T12:09:30.387Z,1.43
2019-03-04T12:10:37.473Z,1.37
2019-03-04T12:11:44.232Z,1.80
2019-03-04T12:12:51.605Z,1.00
2019-03-04T12:13:58.358Z,1.50
2019-03-04T12:15:06.119Z,1.17
2019-03-04T12:16:12.834Z,1.00
2019-03-04T12:17:19.864Z,1.50
2019-03-04T12:18:26.652Z,1.70
2019-03-04T12:19:33.759Z,1.60
2019-03-04T12:20:40.951Z,1.67
2019-03-04T12:21:48.322Z,1.30
2019-03-04T12:22:55.052Z,1.43
2019-03-04T12:24:03.192Z,1.67
2019-03-04T12:25:13.639Z,1.60
2019-03-04T12:26:20.483Z,2.03
2019-03-04T12:27:27.522Z,1.33
2019-03-04T12:28:34.273Z,1.93
2019-03-04T12:29:41.022Z,1.10
2019-03-04T12:30:47.835Z,1.70
2019-03-04T12:32:01.984Z,1.63
2019-03-04T12:33:09.490Z,1.23
2019-03-04T12:34:24.946Z,1.27
2019-03-04T12:35:31.905Z,1.10
2019-03-04T12:36:39.238Z,1.40
2019-03-04T12:37:46.422Z,2.10
2019-03-04T12:38:53.506Z,0.90
2019-03-04T12:40:00.663Z,1.40
2019-03-04T12:41:07.454Z,1.33
2019-03-04T12:42:14.563Z,1.30
2019-03-04T12:43:21.309Z,1.50
2019-03-04T12:44:28.426Z,1.83
2019-03-04T12:45:35.183Z,1.47
2019-03-04T12:46:41.887Z,1.30
2019-03-04T12:47:48.827Z,1.40
2019-03-04T12:48:55.490Z,1.57
2019-03-04T12:50:02.330Z,1.37
2019-03-04T12:51:09.117Z,2.03
2019-03-04T12:52:17.088Z,1.63
2019-03-04T12:53:24.171Z,1.40
2019-03-04T12:54:31.039Z,2.07
2019-03-04T12:55:38.142Z,1.90
2019-03-04T12:56:44.954Z,1.20
2019-03-04T12:57:51.816Z,1.60
2019-03-04T12:58:58.716Z,1.10
2019-03-04T13:00:08.882Z,1.03
2019-03-04T13:01:16.314Z,0.77
2019-03-04T13:02:23.110Z,1.47
2019-03-04T13:03:30.003Z,1.43
2019-03-04T13:04:36.758Z,1.63
2019-03-04T13:05:43.554Z,1.97
2019-03-04T13:06:51.043Z,2.57
2019-03-04T13:07:57.769Z,1.30
2019-03-04T13:09:14.163Z,1.40
2019-03-04T13:10:15.243Z,1.80
2019-03-04T13:11:22.593Z,1.40
2019-03-04T13:12:29.309Z,1.53
2019-03-04T13:13:36.006Z,1.73
2019-03-04T13:14:43.037Z,1.93
2019-03-04T13:15:52.680Z,1.50
2019-03-04T13:16:59.479Z,1.47
2019-03-04T13:18:09.070Z,1.40
2019-03-04T13:19:17.355Z,1.47
2019-03-04T13:20:24.263Z,1.60
2019-03-04T13:21:30.963Z,2.07
2019-03-04T13:22:38.012Z,1.50
2019-03-04T13:23:45.105Z,1.47
2019-03-04T13:24:51.830Z,2.10
2019-03-04T13:25:58.685Z,1.67
2019-03-04T13:27:05.575Z,1.60
2019-03-04T13:28:12.767Z,1.80
2019-03-04T13:29:19.506Z,1.67
2019-03-04T13:30:26.231Z,2.07
2019-03-04T13:31:33.286Z,1.83
2019-03-04T13:32:40.367Z,1.20
2019-03-04T13:33:47.063Z,1.20
2019-03-04T13:34:53.802Z,1.83
2019-03-04T13:36:00.922Z,1.90
2019-03-04T13:37:07.951Z,1.40
2019-03-04T13:38:14.697Z,1.97
2019-03-04T13:39:21.393Z,2.07
2019-03-04T13:40:28.391Z,1.23
2019-03-04T13:41:35.380Z,1.67
2019-03-04T13:42:42.108Z,1.80
2019-03-04T13:43:48.792Z,1.70
2019-03-04T13:44:55.761Z,2.03
2019-03-04T13:46:02.837Z,1.60
2019-03-04T13:47:09.996Z,2.00
2019-03-04T13:48:16.678Z,1.20
2019-03-04T13:49:23.907Z,2.03
2019-03-04T13:50:30.954Z,1.83
2019-03-04T13:51:37.797Z,2.57
2019-03-04T13:52:44.475Z,1.40
2019-03-04T13:53:51.189Z,1.93
2019-03-04T13:54:58.302Z,1.23
2019-03-04T13:56:04.979Z,1.87
2019-03-04T13:57:11.943Z,1.40
2019-03-04T13:58:18.600Z,2.10
2019-03-04T13:59:25.727Z,2.27
2019-03-04T14:00:34.142Z,1.60
2019-03-04T14:01:41.374Z,1.83
2019-03-04T14:02:48.379Z,2.03
2019-03-04T14:03:55.656Z,2.60
2019-03-04T14:05:02.735Z,2.00
2019-03-04T14:06:09.408Z,1.73
2019-03-04T14:07:16.298Z,1.90
2019-03-04T14:08:23.450Z,2.77
2019-03-04T14:09:30.155Z,1.67
2019-03-04T14:10:37.953Z,2.90
2019-03-04T14:11:46.545Z,2.00
2019-03-04T14:12:53.503Z,1.43
2019-03-04T14:14:02.082Z,2.60
2019-03-04T14:15:14.352Z,1.73
2019-03-04T14:16:21.854Z,2.50
2019-03-04T14:17:28.516Z,1.70
2019-03-04T14:18:35.563Z,2.30
2019-03-04T14:19:42.678Z,2.33
2019-03-04T14:20:49.872Z,1.63
2019-03-04T14:21:56.718Z,2.00
2019-03-04T14:23:03.776Z,1.83
2019-03-04T14:24:10.984Z,2.20
2019-03-04T14:25:17.753Z,1.40
2019-03-04T14:26:24.474Z,1.93
2019-03-04T14:27:31.185Z,2.20
2019-03-04T14:28:37.842Z,3.00
2019-03-04T14:29:44.879Z,1.90
2019-03-04T14:30:51.945Z,2.60
2019-03-04T14:31:58.692Z,2.60
2019-03-04T14:33:06.304Z,2.07
2019-03-04T14:34:13.026Z,2.23
2019-03-04T14:35:19.776Z,1.80
2019-03-04T14:36:26.453Z,2.50
2019-03-04T14:37:33.103Z,2.70
2019-03-04T14:38:40.059Z,2.00
2019-03-04T14:39:46.755Z,2.53
2019-03-04T14:40:53.788Z,2.70
2019-03-04T14:42:00.558Z,2.40
2019-03-04T14:43:07.228Z,1.83
2019-03-04T14:44:14.092Z,2.23
2019-03-04T14:45:21.331Z,2.40
2019-03-04T14:46:28.509Z,2.10
2019-03-04T14:47:35.610Z,2.60
2019-03-04T14:48:43.440Z,1.80
2019-03-04T14:49:50.117Z,2.40
2019-03-04T14:50:56.801Z,2.47
2019-03-04T14:52:04.342Z,1.90
2019-03-04T14:53:11.060Z,2.43
2019-03-04T14:54:18.348Z,2.47
2019-03-04T14:55:25.465Z,2.00
2019-03-04T14:56:32.769Z,2.00
2019-03-04T14:57:39.864Z,2.27
2019-03-04T14:58:46.906Z,1.83
2019-03-04T14:59:53.603Z,2.40
2019-03-04T15:01:00.441Z,2.17
2019-03-04T15:02:07.239Z,2.37
2019-03-04T15:03:20.921Z,2.07
2019-03-04T15:04:22.708Z,2.30
2019-03-04T15:05:29.824Z,2.30
2019-03-04T15:06:36.766Z,1.80
2019-03-04T15:07:43.601Z,1.63
2019-03-04T15:08:50.547Z,1.87
2019-03-04T15:09:57.613Z,2.47
2019-03-04T15:11:04.270Z,1.90
2019-03-04T15:12:10.934Z,2.50
2019-03-04T15:13:17.592Z,2.17
2019-03-04T15:14:24.359Z,2.03
2019-03-04T15:15:31.874Z,2.27
2019-03-04T15:16:38.543Z,2.23
2019-03-04T15:17:45.236Z,2.00
2019-03-04T15:18:51.953Z,1.83
2019-03-04T15:20:08.597Z,1.80
2019-03-04T15:21:09.003Z,1.93
2019-03-04T15:22:15.964Z,2.07
2019-03-04T15:23:23.750Z,2.23
2019-03-04T15:24:30.467Z,2.37